createdAt,value
2022-09-06T00:02:31.538Z,101132.22
2022-09-06T00:04:58.797Z,101135.34
2022-09-06T00:07:25.987Z,101133.66
2022-09-06T00:09:53.166Z,101128.00
2022-09-06T00:12:20.510Z,101119.84
2022-09-06T00:14:47.670Z,101116.16
2022-09-06T00:17:14.907Z,101116.69
2022-09-06T00:19:42.078Z,101115.38
2022-09-06T00:22:09.394Z,101116.88
2022-09-06T00:24:37.316Z,101111.63
2022-09-06T00:27:05.110Z,101101.44
2022-09-06T00:29:32.329Z,101103.59
2022-09-06T00:32:00.101Z,101103.88
2022-09-06T00:34:27.887Z,101103.94
2022-09-06T00:36:55.147Z,101101.81
2022-09-06T00:39:22.321Z,101101.91
2022-09-06T00:41:49.517Z,101095.38
2022-09-06T00:44:16.698Z,101102.75
2022-09-06T00:46:46.730Z,101100.50
2022-09-06T00:49:34.154Z,101102.00
2022-09-06T00:52:03.381Z,101099.75
2022-09-06T00:54:31.103Z,101095.53
2022-09-06T00:56:58.612Z,101093.78
2022-09-06T00:59:27.169Z,101098.16
2022-09-06T01:01:54.452Z,101096.91
2022-09-06T01:04:21.813Z,101097.47
2022-09-06T01:06:49.315Z,101095.44
2022-09-06T01:09:16.488Z,101100.34
2022-09-06T01:11:46.718Z,101103.41
2022-09-06T01:14:19.936Z,101102.31
2022-09-06T01:17:11.295Z,101106.44
2022-09-06T01:19:38.478Z,101106.69
2022-09-06T01:22:38.224Z,101107.03
2022-09-06T01:25:11.319Z,101108.00
2022-09-06T01:27:52.772Z,101108.22
2022-09-06T01:30:20.705Z,101110.91
2022-09-06T01:32:56.206Z,101109.66
2022-09-06T01:35:26.456Z,101115.41
2022-09-06T01:37:53.928Z,101118.84
2022-09-06T01:40:21.192Z,101115.47
2022-09-06T01:42:49.578Z,101108.16
2022-09-06T01:45:36.996Z,101119.84
2022-09-06T01:48:07.292Z,101113.53
2022-09-06T01:50:46.229Z,101118.00
2022-09-06T01:53:25.616Z,101113.19
2022-09-06T01:56:13.082Z,101122.31
2022-09-06T01:58:49.492Z,101123.75
2022-09-06T02:01:28.602Z,101120.59
2022-09-06T02:04:00.629Z,101124.06
2022-09-06T02:06:30.108Z,101123.31
2022-09-06T02:09:08.174Z,101122.84
2022-09-06T02:11:47.896Z,101130.50
2022-09-06T02:14:18.575Z,101122.03
2022-09-06T02:16:48.523Z,101124.31
2022-09-06T02:19:19.853Z,101113.63
2022-09-06T02:21:47.915Z,101111.97
2022-09-06T02:24:23.789Z,101113.25
2022-09-06T02:26:51.512Z,101115.03
2022-09-06T02:29:18.948Z,101122.22
2022-09-06T02:31:51.166Z,101118.53
2022-09-06T02:34:19.513Z,101119.31
2022-09-06T02:36:47.097Z,101110.50
2022-09-06T02:39:14.395Z,101111.81
2022-09-06T02:41:43.624Z,101113.72
2022-09-06T02:44:10.914Z,101098.13
2022-09-06T02:46:38.120Z,101098.88
2022-09-06T02:49:05.339Z,101103.44
2022-09-06T02:51:36.587Z,101101.47
2022-09-06T02:54:05.281Z,101111.34
2022-09-06T02:56:33.792Z,101104.19
2022-09-06T02:59:00.990Z,101106.91
2022-09-06T03:01:28.272Z,101109.97
2022-09-06T03:03:56.052Z,101108.41
2022-09-06T03:06:23.375Z,101111.34
2022-09-06T03:08:51.449Z,101103.63
2022-09-06T03:11:18.874Z,101106.44
2022-09-06T03:13:46.405Z,101107.22
2022-09-06T03:16:15.569Z,101104.19
2022-09-06T03:18:42.829Z,101104.50
2022-09-06T03:21:10.131Z,101110.22
2022-09-06T03:23:39.575Z,101109.25
2022-09-06T03:26:07.405Z,101106.88
2022-09-06T03:28:34.777Z,101109.66
2022-09-06T03:31:02.035Z,101103.59
2022-09-06T03:33:29.293Z,101097.63
2022-09-06T03:35:58.127Z,101100.53
2022-09-06T03:38:26.233Z,101096.31
2022-09-06T03:40:54.104Z,101091.88
2022-09-06T03:43:23.125Z,101090.44
2022-09-06T03:45:51.881Z,101091.53
2022-09-06T03:48:20.060Z,101079.81
2022-09-06T03:50:48.321Z,101084.06
2022-09-06T03:53:16.282Z,101081.00
2022-09-06T03:55:47.385Z,101080.78
2022-09-06T03:58:15.860Z,101074.34
2022-09-06T04:00:43.071Z,101077.59
2022-09-06T04:03:10.297Z,101078.44
2022-09-06T04:05:37.605Z,101071.94
2022-09-06T04:08:05.920Z,101081.34
2022-09-06T04:10:33.766Z,101083.72
2022-09-06T04:13:01.020Z,101074.03
2022-09-06T04:15:28.179Z,101087.84
2022-09-06T04:17:55.438Z,101091.53
2022-09-06T04:20:23.480Z,101089.78
2022-09-06T04:22:50.697Z,101090.81
2022-09-06T04:25:17.937Z,101091.00
2022-09-06T04:27:45.212Z,101089.31
2022-09-06T04:30:12.416Z,101092.59
2022-09-06T04:32:39.676Z,101085.81
2022-09-06T04:35:07.097Z,101084.84
2022-09-06T04:37:34.321Z,101091.78
2022-09-06T04:40:01.698Z,101084.09
2022-09-06T04:42:28.955Z,101089.19
2022-09-06T04:44:56.149Z,101095.72
2022-09-06T04:47:23.610Z,101089.53
2022-09-06T04:49:50.812Z,101091.25
2022-09-06T04:52:18.004Z,101088.78
2022-09-06T04:54:45.229Z,101091.47
2022-09-06T04:57:12.492Z,101093.38
2022-09-06T04:59:39.715Z,101098.22
2022-09-06T05:02:07.009Z,101094.22
2022-09-06T05:04:34.315Z,101105.66
2022-09-06T05:07:05.469Z,101105.72
2022-09-06T05:09:33.592Z,101103.88
2022-09-06T05:12:01.701Z,101102.50
2022-09-06T05:14:29.304Z,101098.06
2022-09-06T05:16:56.583Z,101096.59
2022-09-06T05:19:23.897Z,101105.78
2022-09-06T05:21:51.718Z,101110.84
2022-09-06T05:24:19.266Z,101107.63
2022-09-06T05:26:46.500Z,101113.72
2022-09-06T05:29:13.708Z,101116.78
2022-09-06T05:31:40.949Z,101112.56
2022-09-06T05:34:08.247Z,101115.69
2022-09-06T05:36:35.522Z,101111.72
2022-09-06T05:39:02.855Z,101119.34
2022-09-06T05:41:30.067Z,101124.44
2022-09-06T05:43:57.292Z,101110.25
2022-09-06T05:46:24.516Z,101117.50
2022-09-06T05:48:55.615Z,101116.56
2022-09-06T05:51:22.830Z,101117.25
2022-09-06T05:53:50.036Z,101116.91
2022-09-06T05:56:17.293Z,101122.78
2022-09-06T05:58:44.638Z,101127.88
2022-09-06T06:01:14.669Z,101120.63
2022-09-06T06:03:41.969Z,101118.94
2022-09-06T06:06:09.646Z,101117.75
2022-09-06T06:08:36.915Z,101118.28
2022-09-06T06:11:04.237Z,101125.16
2022-09-06T06:13:34.960Z,101123.00
2022-09-06T06:16:03.322Z,101126.13
2022-09-06T06:18:30.587Z,101131.59
2022-09-06T06:21:13.091Z,101127.13
2022-09-06T06:23:41.080Z,101135.16
2022-09-06T06:26:08.717Z,101128.31
2022-09-06T06:28:36.375Z,101121.22
2022-09-06T06:31:04.516Z,101119.50
2022-09-06T06:33:32.516Z,101122.47
2022-09-06T06:36:00.906Z,101127.22
2022-09-06T06:38:32.376Z,101128.06
2022-09-06T06:41:04.394Z,101125.97
2022-09-06T06:43:37.633Z,101126.50
2022-09-06T06:46:05.011Z,101133.06
2022-09-06T06:48:32.489Z,101138.06
2022-09-06T06:50:59.793Z,101130.53
2022-09-06T06:53:26.979Z,101133.81
2022-09-06T06:55:54.608Z,101130.09
2022-09-06T06:58:21.979Z,101135.25
2022-09-06T07:00:49.422Z,101135.84
2022-09-06T07:03:17.036Z,101132.31
2022-09-06T07:08:32.734Z,101134.41
2022-09-06T07:10:59.962Z,101129.69
2022-09-06T07:13:27.269Z,101129.09
2022-09-06T07:16:04.971Z,101135.81
2022-09-06T07:18:32.189Z,101139.16
2022-09-06T07:26:34.645Z,101127.56
2022-09-06T07:29:03.237Z,101129.56
2022-09-06T07:34:20.613Z,101125.91
2022-09-06T07:36:48.489Z,101127.28
2022-09-06T07:39:15.751Z,101133.09
2022-09-06T07:41:43.115Z,101140.56
2022-09-06T07:44:10.443Z,101140.59
2022-09-06T07:46:37.768Z,101142.22
2022-09-06T07:49:05.864Z,101142.47
2022-09-06T07:51:33.067Z,101135.56
2022-09-06T07:54:28.895Z,101130.84
2022-09-06T07:56:47.802Z,101138.25
2022-09-06T07:59:15.407Z,101138.75
2022-09-06T08:01:42.861Z,101139.13
2022-09-06T08:04:14.209Z,101141.88
2022-09-06T08:09:30.215Z,101141.50
2022-09-06T08:11:57.433Z,101132.31
2022-09-06T08:14:24.605Z,101133.69
2022-09-06T08:16:51.853Z,101128.34
2022-09-06T08:19:19.015Z,101129.66
2022-09-06T08:21:46.261Z,101130.41
2022-09-06T08:24:13.448Z,101141.75
2022-09-06T08:26:42.458Z,101137.78
2022-09-06T08:29:10.899Z,101147.59
2022-09-06T08:31:39.187Z,101143.78
2022-09-06T08:34:06.536Z,101142.06
2022-09-06T08:36:34.503Z,101146.31
2022-09-06T08:39:03.065Z,101152.50
2022-09-06T08:41:37.879Z,101147.47
2022-09-06T08:46:59.584Z,101147.31
2022-09-06T08:49:29.416Z,101152.25
2022-09-06T08:52:15.432Z,101147.25
2022-09-06T08:54:42.618Z,101144.25
2022-09-06T08:57:15.748Z,101146.50
2022-09-06T08:59:44.054Z,101142.56
2022-09-06T09:02:11.316Z,101140.28
2022-09-06T09:04:47.325Z,101139.38
2022-09-06T09:07:20.512Z,101136.38
2022-09-06T09:09:47.779Z,101133.69
2022-09-06T09:12:17.706Z,101123.81
2022-09-06T09:14:48.365Z,101122.03
2022-09-06T09:17:22.258Z,101119.34
2022-09-06T09:19:49.829Z,101111.28
2022-09-06T09:22:18.219Z,101108.66
2022-09-06T09:24:47.411Z,101109.72
2022-09-06T09:27:17.561Z,101106.53
2022-09-06T09:32:45.170Z,101100.22
2022-09-06T09:35:21.573Z,101092.41
2022-09-06T09:37:57.441Z,101095.16
2022-09-06T09:40:33.459Z,101095.03
2022-09-06T09:43:15.720Z,101093.16
2022-09-06T09:45:43.593Z,101096.28
2022-09-06T09:48:16.756Z,101089.09
2022-09-06T09:50:43.952Z,101086.03
2022-09-06T09:53:12.433Z,101087.91
2022-09-06T09:55:40.185Z,101084.91
2022-09-06T09:58:08.893Z,101078.16
2022-09-06T10:00:39.946Z,101089.81
2022-09-06T10:03:13.163Z,101090.28
2022-09-06T10:05:41.351Z,101078.16
2022-09-06T10:08:11.129Z,101076.72
2022-09-06T10:10:43.149Z,101070.78
2022-09-06T10:13:29.850Z,101072.81
2022-09-06T10:15:58.889Z,101077.28
2022-09-06T10:18:29.994Z,101074.13
2022-09-06T10:21:02.991Z,101062.03
2022-09-06T10:26:28.883Z,101058.59
2022-09-06T10:29:02.338Z,101048.03
2022-09-06T10:31:29.491Z,101047.63
2022-09-06T10:34:02.812Z,101041.41
2022-09-06T10:36:34.514Z,101043.28
2022-09-06T10:39:18.182Z,101034.47
2022-09-06T10:41:54.604Z,101039.22
2022-09-06T10:44:21.757Z,101028.75
2022-09-06T10:46:51.444Z,101029.50
2022-09-06T10:49:19.312Z,101036.94
2022-09-06T10:51:52.132Z,101031.19
2022-09-06T10:54:23.461Z,101028.88
2022-09-06T10:56:59.277Z,101026.81
2022-09-06T10:59:37.397Z,101027.38
2022-09-06T11:02:05.774Z,101022.16
2022-09-06T11:07:29.143Z,101013.66
2022-09-06T11:10:19.340Z,101011.66
2022-09-06T11:12:49.533Z,101011.06
2022-09-06T11:15:18.047Z,101002.72
2022-09-06T11:17:52.316Z,100992.31
2022-09-06T11:20:48.565Z,100992.59
2022-09-06T11:23:18.812Z,100989.69
2022-09-06T11:25:51.777Z,100986.09
2022-09-06T11:28:30.147Z,100980.28
2022-09-06T11:30:58.030Z,100976.97
2022-09-06T11:33:30.448Z,100971.31
2022-09-06T11:36:16.071Z,100977.78
2022-09-06T11:38:43.323Z,100979.06
2022-09-06T11:41:17.706Z,100977.34
2022-09-06T11:43:51.890Z,100970.41
2022-09-06T11:46:34.578Z,100968.94
2022-09-06T11:49:06.261Z,100965.88
2022-09-06T11:51:43.592Z,100958.22
2022-09-06T11:54:16.904Z,100944.75
2022-09-06T11:56:46.859Z,100944.06
2022-09-06T11:59:16.898Z,100943.56
2022-09-06T12:01:56.017Z,100937.50
2022-09-06T12:04:23.749Z,100937.91
2022-09-06T12:07:10.974Z,100930.16
2022-09-06T12:09:42.622Z,100935.91
2022-09-06T12:12:16.186Z,100930.63
2022-09-06T12:14:46.869Z,100932.22
2022-09-06T12:17:14.172Z,100928.47
2022-09-06T12:19:53.560Z,100922.66
2022-09-06T12:22:26.627Z,100920.25
2022-09-06T12:24:56.064Z,100920.09
2022-09-06T12:27:25.007Z,100910.84
2022-09-06T12:30:04.373Z,100912.88
2022-09-06T12:32:36.969Z,100913.56
2022-09-06T12:37:57.468Z,100905.03
2022-09-06T12:40:25.684Z,100906.16
2022-09-06T12:42:53.495Z,100911.09
2022-09-06T12:45:26.552Z,100904.44
2022-09-06T12:48:11.671Z,100899.03
2022-09-06T12:50:39.332Z,100894.09
2022-09-06T12:53:26.652Z,100890.16
2022-09-06T12:56:07.528Z,100878.34
2022-09-06T12:58:35.656Z,100879.94
2022-09-06T13:01:12.777Z,100876.84
2022-09-06T13:04:06.346Z,100872.06
2022-09-06T13:06:37.384Z,100868.63
2022-09-06T13:09:05.253Z,100870.50
2022-09-06T13:11:34.507Z,100861.19
2022-09-06T13:14:02.562Z,100863.00
2022-09-06T13:16:58.263Z,100862.13
2022-09-06T13:19:30.395Z,100846.78
2022-09-06T13:21:58.518Z,100835.31
2022-09-06T13:24:25.677Z,100828.50
2022-09-06T13:26:53.311Z,100829.53
2022-09-06T13:29:25.140Z,100833.28
2022-09-06T13:31:54.544Z,100829.91
2022-09-06T13:34:23.485Z,100825.28
2022-09-06T13:36:55.288Z,100820.88
2022-09-06T13:39:37.407Z,100817.97
2022-09-06T13:42:23.484Z,100812.13
2022-09-06T13:44:53.557Z,100810.41
2022-09-06T13:47:20.775Z,100808.50
2022-09-06T13:49:48.348Z,100814.28
2022-09-06T13:52:15.605Z,100802.09
2022-09-06T13:54:42.861Z,100809.75
2022-09-06T13:57:10.090Z,100800.91
2022-09-06T13:59:37.253Z,100799.56
2022-09-06T14:02:09.346Z,100792.91
2022-09-06T14:04:36.999Z,100793.44
2022-09-06T14:07:05.105Z,100789.91
2022-09-06T14:09:32.674Z,100780.25
2022-09-06T14:12:00.730Z,100785.03
2022-09-06T14:14:27.961Z,100783.31
2022-09-06T14:16:55.435Z,100778.34
2022-09-06T14:19:23.254Z,100778.97
2022-09-06T14:21:50.483Z,100771.75
2022-09-06T14:24:17.802Z,100772.78
2022-09-06T14:26:45.018Z,100771.59
2022-09-06T14:29:12.283Z,100762.72
2022-09-06T14:31:39.776Z,100768.22
2022-09-06T14:34:07.104Z,100770.97
2022-09-06T14:36:34.657Z,100766.50
2022-09-06T14:39:02.121Z,100765.66
2022-09-06T14:41:29.334Z,100771.25
2022-09-06T14:43:57.750Z,100761.88
2022-09-06T14:46:26.747Z,100760.28
2022-09-06T14:48:58.349Z,100765.78
2022-09-06T14:51:26.204Z,100758.75
2022-09-06T14:53:54.739Z,100758.41
2022-09-06T14:56:22.974Z,100756.28
2022-09-06T14:58:50.451Z,100761.59
2022-09-06T15:01:19.525Z,100752.81
2022-09-06T15:03:48.616Z,100751.25
2022-09-06T15:06:16.368Z,100740.44
2022-09-06T15:08:43.728Z,100736.84
2022-09-06T15:11:12.235Z,100740.63
2022-09-06T15:13:42.796Z,100738.91
2022-09-06T15:16:10.773Z,100732.72
2022-09-06T15:18:38.069Z,100726.75
2022-09-06T15:21:11.937Z,100725.53
2022-09-06T15:23:39.906Z,100720.56
2022-09-06T15:26:08.344Z,100728.94
2022-09-06T15:28:36.956Z,100728.94
2022-09-06T15:31:04.762Z,100725.88
2022-09-06T15:33:32.426Z,100725.34
2022-09-06T15:36:06.224Z,100716.56
2022-09-06T15:38:34.140Z,100722.22
2022-09-06T15:41:07.966Z,100715.88
2022-09-06T15:43:36.605Z,100720.50
2022-09-06T15:46:04.610Z,100713.47
2022-09-06T15:48:39.739Z,100716.03
2022-09-06T15:51:07.022Z,100703.34
2022-09-06T15:53:34.265Z,100699.19
2022-09-06T15:56:02.652Z,100701.41
2022-09-06T15:58:30.353Z,100705.34
2022-09-06T16:01:01.453Z,100695.06
2022-09-06T16:03:49.241Z,100699.69
2022-09-06T16:08:55.429Z,100702.78
2022-09-06T16:11:22.597Z,100694.69
2022-09-06T16:13:49.844Z,100688.34
2022-09-06T16:16:17.562Z,100686.63
2022-09-06T16:18:47.283Z,100689.34
2022-09-06T16:21:16.676Z,100695.88
2022-09-06T16:23:49.753Z,100691.72
2022-09-06T16:26:21.121Z,100686.53
2022-09-06T16:28:50.212Z,100689.44
2022-09-06T16:31:17.994Z,100687.88
2022-09-06T16:33:45.864Z,100691.66
2022-09-06T16:36:15.039Z,100688.38
2022-09-06T16:38:42.397Z,100684.75
2022-09-06T16:41:14.628Z,100685.94
2022-09-06T16:43:42.096Z,100694.50
2022-09-06T16:46:09.546Z,100695.50
2022-09-06T16:48:37.040Z,100694.81
2022-09-06T16:51:11.542Z,100694.97
2022-09-06T16:53:39.378Z,100688.25
2022-09-06T16:56:06.711Z,100700.53
2022-09-06T16:58:34.044Z,100702.75
2022-09-06T17:01:01.376Z,100704.63
2022-09-06T17:03:28.953Z,100700.63
2022-09-06T17:05:56.229Z,100697.19
2022-09-06T17:08:23.505Z,100704.00
2022-09-06T17:10:50.798Z,100702.44
2022-09-06T17:13:17.982Z,100699.16
2022-09-06T17:16:11.089Z,100705.13
2022-09-06T17:18:38.582Z,100708.97
2022-09-06T17:21:06.081Z,100700.22
2022-09-06T17:23:33.437Z,100703.28
2022-09-06T17:26:00.909Z,100699.13
2022-09-06T17:28:28.734Z,100700.28
2022-09-06T17:31:00.188Z,100692.41
2022-09-06T17:33:27.483Z,100696.00
2022-09-06T17:35:54.656Z,100693.72
2022-09-06T17:38:21.807Z,100696.06
2022-09-06T17:40:57.005Z,100698.41
2022-09-06T17:43:24.200Z,100693.41
2022-09-06T17:45:51.400Z,100688.22
2022-09-06T17:48:18.706Z,100692.28
2022-09-06T17:50:45.897Z,100691.59
2022-09-06T17:53:13.086Z,100687.28
2022-09-06T17:55:41.387Z,100700.25
2022-09-06T17:58:08.761Z,100692.34
2022-09-06T18:00:40.289Z,100697.13
2022-09-06T18:03:08.284Z,100703.47
2022-09-06T18:05:42.896Z,100704.47
2022-09-06T18:08:10.193Z,100702.03
2022-09-06T18:10:37.988Z,100709.38
2022-09-06T18:13:06.167Z,100703.19
2022-09-06T18:15:38.427Z,100706.22
2022-09-06T18:18:05.657Z,100703.94
2022-09-06T18:20:32.914Z,100705.97
2022-09-06T18:23:00.358Z,100719.97
2022-09-06T18:25:28.575Z,100726.59
2022-09-06T18:27:55.808Z,100736.53
2022-09-06T18:30:23.037Z,100736.69
2022-09-06T18:32:50.878Z,100749.47
2022-09-06T18:35:19.841Z,100738.13
2022-09-06T18:37:47.164Z,100739.59
2022-09-06T18:40:14.543Z,100736.78
2022-09-06T18:42:44.921Z,100742.94
2022-09-06T18:45:13.528Z,100745.41
2022-09-06T18:47:42.770Z,100742.28
2022-09-06T18:50:10.110Z,100745.00
2022-09-06T18:52:38.463Z,100754.63
2022-09-06T18:55:06.206Z,100752.16
2022-09-06T18:57:33.508Z,100757.75
2022-09-06T19:00:01.031Z,100760.66
2022-09-06T19:02:28.778Z,100762.69
2022-09-06T19:04:59.158Z,100752.91
2022-09-06T19:07:28.585Z,100753.63
2022-09-06T19:09:57.779Z,100751.75
2022-09-06T19:12:25.109Z,100756.81
2022-09-06T19:14:52.570Z,100758.81
2022-09-06T19:17:19.937Z,100761.28
2022-09-06T19:19:47.230Z,100763.03
2022-09-06T19:22:14.667Z,100751.94
2022-09-06T19:24:44.381Z,100756.00
2022-09-06T19:27:12.185Z,100761.69
2022-09-06T19:29:39.501Z,100759.84
2022-09-06T19:32:06.921Z,100764.19
2022-09-06T19:34:34.280Z,100769.19
2022-09-06T19:37:01.585Z,100770.38
2022-09-06T19:39:34.787Z,100772.09
2022-09-06T19:42:04.496Z,100776.13
2022-09-06T19:44:32.611Z,100784.06
2022-09-06T19:47:00.258Z,100789.63
2022-09-06T19:49:27.735Z,100790.75
2022-09-06T19:51:54.986Z,100788.16
2022-09-06T19:54:22.228Z,100775.66
2022-09-06T19:56:49.507Z,100768.63
2022-09-06T19:59:17.747Z,100760.13
2022-09-06T20:01:46.167Z,100758.25
2022-09-06T20:04:14.822Z,100770.19
2022-09-06T20:06:42.117Z,100771.75
2022-09-06T20:09:09.968Z,100779.78
2022-09-06T20:11:38.156Z,100768.00
2022-09-06T20:14:05.951Z,100764.00
2022-09-06T20:16:36.029Z,100753.78
2022-09-06T20:19:05.782Z,100761.97
2022-09-06T20:21:33.116Z,100760.06
2022-09-06T20:24:00.455Z,100759.22
2022-09-06T20:26:28.862Z,100763.94
2022-09-06T20:29:00.068Z,100764.34
2022-09-06T20:31:28.958Z,100767.78
2022-09-06T20:33:58.237Z,100764.97
2022-09-06T20:36:25.912Z,100757.03
2022-09-06T20:38:53.326Z,100767.34
2022-09-06T20:41:21.469Z,100756.53
2022-09-06T20:43:53.071Z,100760.00
2022-09-06T20:46:21.639Z,100750.22
2022-09-06T20:48:49.189Z,100746.69
2022-09-06T20:51:19.242Z,100750.31
2022-09-06T20:53:48.110Z,100754.50
2022-09-06T20:56:16.710Z,100747.50
2022-09-06T20:58:47.943Z,100766.13
2022-09-06T21:01:16.646Z,100776.19
2022-09-06T21:03:44.022Z,100778.72
2022-09-06T21:06:12.333Z,100778.72
2022-09-06T21:08:42.825Z,100788.28
2022-09-06T21:11:10.636Z,100795.66
2022-09-06T21:13:38.072Z,100789.50
2022-09-06T21:16:06.201Z,100789.63
2022-09-06T21:18:34.460Z,100793.78
2022-09-06T21:21:06.281Z,100792.59
2022-09-06T21:23:38.265Z,100791.25
2022-09-06T21:26:10.106Z,100802.97
2022-09-06T21:28:38.592Z,100794.22
2022-09-06T21:31:08.155Z,100795.41
2022-09-06T21:33:36.441Z,100793.97
2022-09-06T21:36:07.001Z,100797.69
2022-09-06T21:38:35.365Z,100789.88
2022-09-06T21:41:03.511Z,100787.41
2022-09-06T21:43:31.089Z,100791.78
2022-09-06T21:46:02.054Z,100793.19
2022-09-06T21:48:29.460Z,100790.91
2022-09-06T21:50:57.400Z,100793.78
2022-09-06T21:53:26.621Z,100791.31
2022-09-06T21:55:59.421Z,100795.91
2022-09-06T21:58:26.721Z,100794.66
2022-09-06T22:00:55.510Z,100789.19
2022-09-06T22:03:23.000Z,100788.03
2022-09-06T22:05:50.370Z,100776.00
2022-09-06T22:08:17.729Z,100779.44
2022-09-06T22:10:45.072Z,100771.53
2022-09-06T22:13:12.332Z,100779.00
2022-09-06T22:15:39.775Z,100780.72
2022-09-06T22:18:07.423Z,100782.13
2022-09-06T22:20:34.711Z,100772.22
2022-09-06T22:23:03.212Z,100770.81
2022-09-06T22:25:31.232Z,100774.13
2022-09-06T22:27:58.661Z,100769.97
2022-09-06T22:30:26.477Z,100761.81
2022-09-06T22:32:53.876Z,100771.16
2022-09-06T22:35:21.245Z,100769.00
2022-09-06T22:37:48.501Z,100761.09
2022-09-06T22:40:15.824Z,100758.41
2022-09-06T22:42:43.435Z,100752.13
2022-09-06T22:45:10.810Z,100753.34
2022-09-06T22:47:38.099Z,100752.84
2022-09-06T22:50:06.832Z,100751.84
2022-09-06T22:52:34.101Z,100759.72
2022-09-06T22:55:01.481Z,100750.53
2022-09-06T22:57:28.724Z,100752.44
2022-09-06T22:59:56.043Z,100750.88
2022-09-06T23:02:23.298Z,100753.53
2022-09-06T23:04:51.412Z,100752.53
2022-09-06T23:07:18.721Z,100758.13
2022-09-06T23:09:46.016Z,100755.78
2022-09-06T23:12:13.320Z,100761.25
2022-09-06T23:14:40.598Z,100762.75
2022-09-06T23:17:07.877Z,100760.53
2022-09-06T23:19:35.102Z,100770.75
2022-09-06T23:22:02.652Z,100770.16
2022-09-06T23:24:29.876Z,100766.16
2022-09-06T23:26:57.109Z,100763.09
2022-09-06T23:29:24.515Z,100760.88
2022-09-06T23:31:51.947Z,100749.13
2022-09-06T23:34:19.181Z,100750.19
2022-09-06T23:36:46.435Z,100748.91
2022-09-06T23:39:13.658Z,100741.16
2022-09-06T23:41:40.903Z,100744.53
2022-09-06T23:44:08.110Z,100743.22
2022-09-06T23:46:35.468Z,100741.47
2022-09-06T23:49:02.819Z,100751.50
2022-09-06T23:51:30.072Z,100748.16
2022-09-06T23:53:58.332Z,100747.97
2022-09-06T23:56:25.594Z,100752.16
2022-09-06T23:58:52.829Z,100752.34
